Time,TemperatureF,DewpointF,PressureIn,WindDirection,WindDirectionDegrees,WindSpeedMPH,WindSpeedGustMPH,Humidity,HourlyPrecipIn,Conditions,Clouds,dailyrainin,SoftwareType,DateUTC
2013-02-19 00:02:00,24.0,-1.0,30.02,South,191,8.0,13.0,33,0.00,,,0.00,,2013-02-19 05:02:00,
2013-02-19 00:13:00,24.0,-1.0,30.02,South,191,8.0,13.0,33,0.00,,,0.00,,2013-02-19 05:13:00,
2013-02-19 00:22:00,24.0,-1.0,30.03,WSW,255,9.0,15.0,33,0.00,,,0.00,,2013-02-19 05:22:00,
2013-02-19 00:32:00,24.0,0.0,30.03,SSW,202,3.0,10.0,34,0.00,,,0.00,,2013-02-19 05:32:00,
2013-02-19 00:43:00,24.0,0.0,30.03,SSW,202,3.0,10.0,34,0.00,,,0.00,,2013-02-19 05:43:00,
2013-02-19 00:52:00,24.0,0.0,30.02,WSW,249,4.0,9.0,34,0.00,,,0.00,,2013-02-19 05:52:00,
2013-02-19 01:02:00,23.0,-1.0,30.03,WSW,250,5.0,10.0,34,0.00,,,0.00,,2013-02-19 06:02:00,
2013-02-19 01:12:00,23.0,-1.0,30.03,WSW,250,5.0,10.0,34,0.00,,,0.00,,2013-02-19 06:12:00,
2013-02-19 01:22:00,23.0,0.0,30.03,SW,222,5.0,10.0,36,0.00,,,0.00,,2013-02-19 06:22:00,
2013-02-19 01:32:00,23.0,1.0,30.03,SSE,161,7.0,16.0,37,0.00,,,0.00,,2013-02-19 06:32:00,
2013-02-19 01:42:00,23.0,1.0,30.03,SSE,161,7.0,16.0,37,0.00,,,0.00,,2013-02-19 06:42:00,
2013-02-19 01:53:00,23.0,1.0,30.03,SSE,153,5.0,15.0,38,0.00,,,0.00,,2013-02-19 06:53:00,
2013-02-19 02:01:00,23.0,2.0,30.04,South,182,7.0,18.0,39,0.00,,,0.00,,2013-02-19 07:01:00,
2013-02-19 02:11:00,23.0,2.0,30.04,South,182,7.0,18.0,39,0.00,,,0.00,,2013-02-19 07:11:00,
2013-02-19 02:22:00,23.0,2.0,30.04,SW,227,8.0,15.0,40,0.00,,,0.00,,2013-02-19 07:22:00,
2013-02-19 02:32:00,23.0,3.0,30.04,East,94,6.0,13.0,41,0.00,,,0.00,,2013-02-19 07:32:00,
2013-02-19 02:42:00,23.0,3.0,30.04,East,94,6.0,13.0,41,0.00,,,0.00,,2013-02-19 07:42:00,
2013-02-19 02:52:00,23.0,3.0,30.05,NE,40,7.0,12.0,42,0.00,,,0.00,,2013-02-19 07:52:00,
2013-02-19 03:02:00,23.0,4.0,30.05,East,89,5.0,11.0,43,0.00,,,0.00,,2013-02-19 08:02:00,
2013-02-19 03:11:00,23.0,4.0,30.05,East,89,5.0,11.0,43,0.00,,,0.00,,2013-02-19 08:11:00,
2013-02-19 03:22:00,23.0,4.0,30.05,WSW,241,4.0,11.0,44,0.00,,,0.00,,2013-02-19 08:22:00,
2013-02-19 03:32:00,23.0,4.0,30.05,West,272,4.0,11.0,44,0.00,,,0.00,,2013-02-19 08:32:00,
2013-02-19 03:42:00,23.0,4.0,30.05,West,272,4.0,11.0,44,0.00,,,0.00,,2013-02-19 08:42:00,
2013-02-19 03:52:00,23.0,4.0,30.05,WSW,240,6.0,15.0,44,0.00,,,0.00,,2013-02-19 08:52:00,
2013-02-19 04:02:00,24.0,5.0,30.05,SW,229,6.0,14.0,44,0.00,,,0.00,,2013-02-19 09:02:00,
2013-02-19 04:11:00,24.0,5.0,30.05,SW,229,6.0,14.0,44,0.00,,,0.00,,2013-02-19 09:11:00,
2013-02-19 04:22:00,24.0,5.0,30.05,West,264,8.0,16.0,44,0.00,,,0.00,,2013-02-19 09:22:00,
2013-02-19 04:32:00,24.0,5.0,30.05,West,264,8.0,16.0,44,0.00,,,0.00,,2013-02-19 09:32:00,
2013-02-19 04:42:00,24.0,5.0,30.05,West,264,8.0,16.0,44,0.00,,,0.00,,2013-02-19 09:42:00,
2013-02-19 04:53:00,23.0,5.0,30.06,ENE,69,3.0,13.0,45,0.00,,,0.00,,2013-02-19 09:53:00,
2013-02-19 07:52:00,24.0,6.0,30.04,SW,223,2.0,10.0,45,0.00,,,0.00,,2013-02-19 12:52:00,
2013-02-19 08:02:00,25.0,6.0,30.03,SE,133,1.0,3.0,44,0.00,,,0.00,,2013-02-19 13:02:00,
2013-02-19 08:11:00,25.0,6.0,30.03,SE,133,1.0,3.0,44,0.00,,,0.00,,2013-02-19 13:11:00,
2013-02-19 08:22:00,25.0,5.0,30.03,SW,232,1.0,3.0,42,0.00,,,0.00,,2013-02-19 13:22:00,
2013-02-19 08:32:00,27.0,5.0,30.02,SSW,205,1.0,2.0,39,0.00,,,0.00,,2013-02-19 13:32:00,
2013-02-19 08:42:00,27.0,5.0,30.02,SSW,205,1.0,2.0,39,0.00,,,0.00,,2013-02-19 13:42:00,
2013-02-19 08:52:00,27.0,5.0,30.02,WSW,246,0.0,4.0,39,0.00,,,0.00,,2013-02-19 13:52:00,
2013-02-19 09:02:00,28.0,6.0,30.02,SE,140,0.0,1.0,38,0.00,,,0.00,,2013-02-19 14:02:00,
2013-02-19 09:12:00,28.0,6.0,30.02,SE,140,0.0,1.0,38,0.00,,,0.00,,2013-02-19 14:12:00,
2013-02-19 09:22:00,29.0,5.0,30.02,SW,227,2.0,4.0,35,0.00,,,0.00,,2013-02-19 14:22:00,
2013-02-19 09:33:00,29.0,5.0,30.01,SW,234,1.0,3.0,36,0.00,,,0.00,,2013-02-19 14:33:00,
2013-02-19 09:42:00,29.0,5.0,30.01,SW,234,1.0,3.0,36,0.00,,,0.00,,2013-02-19 14:42:00,
2013-02-19 09:52:00,30.0,6.0,30.01,WSW,244,0.0,2.0,35,0.00,,,0.00,,2013-02-19 14:52:00,
2013-02-19 10:02:00,31.0,7.0,30.00,NW,325,0.0,1.0,35,0.00,,,0.00,,2013-02-19 15:02:00,
2013-02-19 10:11:00,31.0,7.0,30.00,NW,325,0.0,1.0,35,0.00,,,0.00,,2013-02-19 15:11:00,
2013-02-19 10:22:00,33.0,7.0,30.01,WSW,248,4.0,5.0,33,0.00,,,0.00,,2013-02-19 15:22:00,
2013-02-19 10:32:00,34.0,9.0,30.01,SSE,152,2.0,5.0,34,0.00,,,0.00,,2013-02-19 15:32:00,
2013-02-19 10:42:00,34.0,9.0,30.01,SSE,152,2.0,5.0,34,0.00,,,0.00,,2013-02-19 15:42:00,
2013-02-19 10:52:00,35.0,13.0,30.00,East,92,2.0,5.0,40,0.00,,,0.00,,2013-02-19 15:52:00,
2013-02-19 11:02:00,36.0,13.0,29.99,NNE,30,1.0,5.0,38,0.00,,,0.00,,2013-02-19 16:02:00,
2013-02-19 11:11:00,36.0,13.0,29.99,NNE,30,1.0,5.0,38,0.00,,,0.00,,2013-02-19 16:11:00,
2013-02-19 11:22:00,37.0,15.0,29.98,South,171,1.0,4.0,40,0.00,,,0.00,,2013-02-19 16:22:00,
2013-02-19 11:32:00,37.0,17.0,29.98,SSW,210,1.0,3.0,43,0.00,,,0.00,,2013-02-19 16:32:00,
2013-02-19 11:42:00,37.0,17.0,29.98,SSW,210,1.0,3.0,43,0.00,,,0.00,,2013-02-19 16:42:00,
2013-02-19 11:52:00,37.0,18.0,29.97,East,86,2.0,5.0,45,0.00,,,0.00,,2013-02-19 16:52:00,
2013-02-19 12:01:00,37.0,17.0,29.96,SE,129,2.0,8.0,44,0.00,,,0.00,,2013-02-19 17:01:00,
2013-02-19 12:11:00,37.0,17.0,29.96,SE,129,2.0,8.0,44,0.00,,,0.00,,2013-02-19 17:11:00,
2013-02-19 12:21:00,37.0,18.0,29.96,SE,128,2.0,6.0,46,0.00,,,0.00,,2013-02-19 17:21:00,
2013-02-19 12:32:00,39.0,19.0,29.94,SE,127,2.0,7.0,45,0.00,,,0.00,,2013-02-19 17:32:00,
2013-02-19 12:42:00,39.0,19.0,29.94,SE,127,2.0,7.0,45,0.00,,,0.00,,2013-02-19 17:42:00,
2013-02-19 12:52:00,39.0,19.0,29.93,SW,232,1.0,7.0,45,0.00,,,0.00,,2013-02-19 17:52:00,
2013-02-19 13:02:00,39.0,20.0,29.93,ESE,105,2.0,6.0,47,0.00,,,0.00,,2013-02-19 18:02:00,
2013-02-19 13:11:00,39.0,20.0,29.93,ESE,105,2.0,6.0,47,0.00,,,0.00,,2013-02-19 18:11:00,
2013-02-19 13:21:00,40.0,22.0,29.91,South,169,2.0,5.0,49,0.00,,,0.00,,2013-02-19 18:21:00,
2013-02-19 13:32:00,40.0,24.0,29.91,NW,317,1.0,6.0,53,0.00,,,0.00,,2013-02-19 18:32:00,
2013-02-19 13:42:00,40.0,25.0,29.90,SE,138,2.0,5.0,54,0.00,,,0.00,,2013-02-19 18:42:00,
2013-02-19 13:52:00,40.0,25.0,29.90,SE,138,2.0,5.0,54,0.00,,,0.00,,2013-02-19 18:52:00,
2013-02-19 14:01:00,41.0,29.0,29.88,ESE,107,2.0,8.0,63,0.00,,,0.00,,2013-02-19 19:01:00,
2013-02-19 14:21:00,41.0,30.0,29.88,SSE,150,1.0,8.0,65,0.00,,,0.00,,2013-02-19 19:21:00,
2013-02-19 14:32:00,40.0,31.0,29.88,SE,137,3.0,10.0,71,0.00,,,0.00,,2013-02-19 19:32:00,
2013-02-19 14:42:00,40.0,31.0,29.88,SE,137,3.0,10.0,71,0.00,,,0.00,,2013-02-19 19:42:00,
2013-02-19 14:52:00,40.0,32.0,29.87,SE,134,2.0,10.0,73,0.00,,,0.00,,2013-02-19 19:52:00,
2013-02-19 15:02:00,40.0,33.0,29.85,SSE,152,2.0,9.0,75,0.00,,,0.00,,2013-02-19 20:02:00,
2013-02-19 15:12:00,40.0,33.0,29.85,SSE,152,2.0,9.0,75,0.00,,,0.00,,2013-02-19 20:12:00,
2013-02-19 15:22:00,40.0,33.0,29.85,SSE,152,2.0,9.0,75,0.00,,,0.00,,2013-02-19 20:22:00,
2013-02-19 15:32:00,40.0,34.0,29.83,NE,51,1.0,4.0,80,0.00,,,0.00,,2013-02-19 20:32:00,
2013-02-19 15:42:00,40.0,34.0,29.83,NE,51,1.0,4.0,80,0.00,,,0.00,,2013-02-19 20:42:00,
2013-02-19 15:52:00,40.0,35.0,29.83,East,89,1.0,4.0,81,0.00,,,0.00,,2013-02-19 20:52:00,
2013-02-19 16:02:00,41.0,37.0,29.80,ENE,71,3.0,11.0,84,0.00,,,0.00,,2013-02-19 21:02:00,
2013-02-19 16:11:00,41.0,37.0,29.80,ENE,71,3.0,11.0,84,0.00,,,0.00,,2013-02-19 21:11:00,
2013-02-19 16:21:00,41.0,37.0,29.80,ENE,71,3.0,11.0,84,0.00,,,0.00,,2013-02-19 21:21:00,
2013-02-19 16:32:00,41.0,36.0,29.78,SE,144,3.0,12.0,82,0.00,,,0.00,,2013-02-19 21:32:00,
2013-02-19 16:42:00,41.0,36.0,29.78,SE,144,3.0,12.0,82,0.00,,,0.00,,2013-02-19 21:42:00,
2013-02-19 16:52:00,41.0,36.0,29.77,ESE,109,4.0,13.0,82,0.00,,,0.00,,2013-02-19 21:52:00,
2013-02-19 17:02:00,41.0,36.0,29.77,ESE,109,4.0,13.0,82,0.00,,,0.00,,2013-02-19 22:02:00,
2013-02-19 17:11:00,41.0,36.0,29.77,ESE,109,4.0,13.0,82,0.00,,,0.00,,2013-02-19 22:11:00,
2013-02-19 17:21:00,41.0,37.0,29.76,NE,55,7.0,20.0,84,0.00,,,0.00,,2013-02-19 22:21:00,
2013-02-19 17:32:00,41.0,37.0,29.75,SSE,153,6.0,18.0,85,0.00,,,0.00,,2013-02-19 22:32:00,
2013-02-19 17:42:00,41.0,37.0,29.75,SSE,153,6.0,18.0,85,0.00,,,0.00,,2013-02-19 22:42:00,
2013-02-19 17:52:00,41.0,37.0,29.75,SE,133,5.0,15.0,86,0.00,,,0.00,,2013-02-19 22:52:00,
2013-02-19 18:01:00,41.0,37.0,29.75,SE,133,5.0,15.0,86,0.00,,,0.00,,2013-02-19 23:01:00,
2013-02-19 18:11:00,41.0,37.0,29.75,SE,133,5.0,15.0,86,0.00,,,0.00,,2013-02-19 23:11:00,
2013-02-19 18:21:00,41.0,37.0,29.74,ESE,120,8.0,18.0,87,0.00,,,0.00,,2013-02-19 23:21:00,
2013-02-19 18:32:00,41.0,38.0,29.73,ENE,78,6.0,16.0,89,0.00,,,0.00,,2013-02-19 23:32:00,
2013-02-19 18:42:00,41.0,38.0,29.73,ENE,78,6.0,16.0,89,0.00,,,0.00,,2013-02-19 23:42:00,
2013-02-19 18:52:00,41.0,38.0,29.71,SSE,152,5.0,17.0,90,0.00,,,0.00,,2013-02-19 23:52:00,
2013-02-19 19:02:00,41.0,38.0,29.70,SSE,165,5.0,11.0,90,0.00,,,0.00,,2013-02-20 00:02:00,
2013-02-19 19:11:00,41.0,38.0,29.70,SSE,165,5.0,11.0,90,0.00,,,0.00,,2013-02-20 00:11:00,
2013-02-19 19:21:00,41.0,39.0,29.69,SE,127,4.0,10.0,91,0.00,,,0.00,,2013-02-20 00:21:00,
2013-02-19 19:32:00,41.0,39.0,29.68,South,171,4.0,12.0,91,0.00,,,0.00,,2013-02-20 00:32:00,
2013-02-19 19:42:00,41.0,39.0,29.68,South,171,4.0,12.0,91,0.00,,,0.00,,2013-02-20 00:42:00,
2013-02-19 19:52:00,41.0,39.0,29.67,SE,133,6.0,14.0,93,0.02,,,0.02,,2013-02-20 00:52:00,
2013-02-19 20:02:00,41.0,39.0,29.66,East,99,3.0,14.0,93,0.04,,,0.04,,2013-02-20 01:02:00,
2013-02-19 20:11:00,41.0,39.0,29.66,East,99,3.0,14.0,93,0.04,,,0.04,,2013-02-20 01:11:00,
2013-02-19 20:21:00,41.0,39.0,29.65,NE,46,7.0,13.0,94,0.08,,,0.08,,2013-02-20 01:21:00,
2013-02-19 20:32:00,41.0,39.0,29.64,ESE,109,5.0,10.0,94,0.11,,,0.12,,2013-02-20 01:32:00,
2013-02-19 20:42:00,41.0,39.0,29.64,ESE,109,5.0,10.0,94,0.11,,,0.12,,2013-02-20 01:42:00,
2013-02-19 20:52:00,41.0,39.0,29.64,ESE,109,5.0,10.0,94,0.11,,,0.12,,2013-02-20 01:52:00,
2013-02-19 21:02:00,41.0,40.0,29.61,NE,37,5.0,13.0,95,0.16,,,0.21,,2013-02-20 02:02:00,
2013-02-19 21:11:00,41.0,40.0,29.61,NE,37,5.0,13.0,95,0.16,,,0.21,,2013-02-20 02:11:00,
2013-02-19 21:22:00,41.0,40.0,29.59,SSW,198,5.0,15.0,96,0.16,,,0.25,,2013-02-20 02:22:00,
2013-02-19 21:32:00,42.0,41.0,29.57,ESE,102,7.0,17.0,96,0.17,,,0.30,,2013-02-20 02:32:00,
2013-02-19 21:42:00,42.0,41.0,29.57,ESE,102,7.0,17.0,96,0.17,,,0.30,,2013-02-20 02:42:00,
2013-02-19 21:52:00,42.0,41.0,29.54,South,172,6.0,21.0,96,0.15,,,0.32,,2013-02-20 02:52:00,
2013-02-19 22:02:00,42.0,41.0,29.52,SE,126,5.0,13.0,95,0.12,,,0.33,,2013-02-20 03:02:00,
2013-02-19 22:12:00,42.0,41.0,29.52,SE,126,5.0,13.0,95,0.12,,,0.33,,2013-02-20 03:12:00,
2013-02-19 22:22:00,42.0,41.0,29.54,SE,128,7.0,16.0,95,0.08,,,0.33,,2013-02-20 03:22:00,
2013-02-19 22:32:00,42.0,41.0,29.52,SSE,164,6.0,13.0,96,0.06,,,0.36,,2013-02-20 03:32:00,
2013-02-19 22:42:00,42.0,41.0,29.52,SSE,164,6.0,13.0,96,0.06,,,0.36,,2013-02-20 03:42:00,
2013-02-19 22:52:00,42.0,41.0,29.51,SW,220,4.0,15.0,96,0.07,,,0.39,,2013-02-20 03:52:00,
2013-02-19 23:01:00,41.0,40.0,29.53,SSW,194,5.0,10.0,95,0.09,,,0.42,,2013-02-20 04:01:00,
2013-02-19 23:11:00,41.0,40.0,29.53,SSW,194,5.0,10.0,95,0.09,,,0.42,,2013-02-20 04:11:00,
2013-02-19 23:21:00,41.0,40.0,29.52,WSW,254,3.0,6.0,96,0.11,,,0.44,,2013-02-20 04:21:00,
2013-02-19 23:32:00,40.0,39.0,29.50,SSW,213,0.0,4.0,96,0.09,,,0.46,,2013-02-20 04:32:00,
2013-02-19 23:42:00,40.0,39.0,29.50,SSW,213,0.0,4.0,96,0.09,,,0.46,,2013-02-20 04:42:00,
2013-02-19 23:52:00,40.0,39.0,29.49,SSW,212,0.0,2.0,96,0.07,,,0.46,,2013-02-20 04:52:00,